Time;durP1;ratioP1;P1;durP2;ratioP2;P2;SDS_P1;SDS_P2;PMS_P1;PMS_P2;Temp;Humidity;BMP_temperature;BMP_pressure;BME280_temperature;BME280_humidity;BME280_pressure;Samples;Min_cycle;Max_cycle;Signal;HPM_P1;HPM_P2
2022/08/26 00:01:27;;;;;;;16.57;10.20;;;23.00;99.90;;;;;;5071368;28;20437;-47
2022/08/26 00:03:53;;;;;;;15.73;10.63;;;23.00;99.90;;;;;;5071418;28;20882;-47
2022/08/26 00:06:21;;;;;;;15.03;10.03;;;23.10;99.90;;;;;;5071530;28;20436;-47
2022/08/26 00:08:48;;;;;;;12.90;9.50;;;22.80;99.90;;;;;;5071019;28;20846;-47
2022/08/26 00:11:15;;;;;;;21.00;11.60;;;22.90;99.90;;;;;;5071439;28;20455;-47
2022/08/26 00:13:42;;;;;;;21.50;9.80;;;23.00;99.90;;;;;;5071298;28;20441;-47
2022/08/26 00:16:10;;;;;;;22.10;9.97;;;23.00;99.90;;;;;;5071839;28;20437;-47
2022/08/26 00:18:38;;;;;;;18.97;10.40;;;22.70;99.90;;;;;;5070656;28;20467;-47
2022/08/26 00:21:05;;;;;;;16.40;9.87;;;23.00;99.90;;;;;;5071466;28;20551;-47
2022/08/26 00:23:33;;;;;;;20.23;10.00;;;22.90;99.90;;;;;;5071469;28;20441;-47
2022/08/26 00:26:00;;;;;;;16.33;10.10;;;22.80;99.90;;;;;;5071540;28;20941;-47
2022/08/26 00:28:27;;;;;;;20.37;10.67;;;22.80;99.90;;;;;;5070970;28;20460;-47
2022/08/26 00:30:53;;;;;;;15.30;9.90;;;22.90;99.90;;;;;;5071585;28;20541;-47
2022/08/26 00:33:20;;;;;;;12.40;9.37;;;22.90;99.90;;;;;;5071761;28;20492;-47
2022/08/26 00:35:47;;;;;;;18.40;10.43;;;22.80;99.90;;;;;;5053299;28;20483;-47
2022/08/26 00:38:14;;;;;;;16.13;9.77;;;22.60;99.90;;;;;;5071343;28;20449;-46
2022/08/26 00:40:47;;;;;;;14.00;10.37;;;22.60;99.90;;;;;;5071072;28;20904;-47
2022/08/26 00:43:14;;;;;;;17.27;11.00;;;22.80;99.90;;;;;;5071263;28;20436;-47
2022/08/26 00:45:44;;;;;;;21.87;13.60;;;22.80;99.90;;;;;;5071216;28;20922;-48
2022/08/26 00:48:12;;;;;;;21.03;12.70;;;22.80;99.90;;;;;;5071048;28;20990;-48
2022/08/26 00:50:45;;;;;;;15.73;12.73;;;22.60;99.90;;;;;;5070870;28;20439;-48
2022/08/26 00:53:21;;;;;;;15.80;14.10;;;22.70;99.90;;;;;;5071096;28;20431;-48
2022/08/26 00:55:52;;;;;;;16.67;12.67;;;22.60;99.90;;;;;;5071031;28;20540;-48
2022/08/26 00:58:20;;;;;;;19.50;13.57;;;22.60;99.90;;;;;;5070976;28;20517;-47
2022/08/26 01:00:47;;;;;;;18.53;12.33;;;22.40;99.90;;;;;;5070724;28;20438;-48
2022/08/26 01:03:16;;;;;;;21.77;13.30;;;22.50;99.90;;;;;;5070980;28;20430;-48
2022/08/26 01:05:43;;;;;;;19.77;12.33;;;22.50;99.90;;;;;;5070962;28;20489;-48
2022/08/26 01:08:10;;;;;;;15.43;12.23;;;22.10;99.90;;;;;;5070770;28;20452;-48
2022/08/26 01:10:36;;;;;;;24.87;12.20;;;22.40;99.90;;;;;;5070628;28;20807;-48
2022/08/26 01:13:08;;;;;;;22.83;12.77;;;22.40;99.90;;;;;;5070929;28;20439;-48
2022/08/26 01:15:39;;;;;;;15.00;12.00;;;22.40;99.90;;;;;;5070845;28;20485;-48
2022/08/26 01:18:07;;;;;;;18.50;12.83;;;22.30;99.90;;;;;;5070690;28;20476;-48
2022/08/26 01:20:39;;;;;;;19.73;12.27;;;22.40;99.90;;;;;;5070437;28;20439;-46
2022/08/26 01:23:09;;;;;;;23.97;14.77;;;22.40;99.90;;;;;;5070809;28;20430;-46
2022/08/26 01:25:42;;;;;;;21.53;13.53;;;22.40;99.90;;;;;;5070522;28;20428;-46
2022/08/26 01:28:14;;;;;;;20.37;13.40;;;22.40;99.90;;;;;;5070676;28;20523;-47
2022/08/26 01:30:42;;;;;;;21.40;12.57;;;22.50;99.90;;;;;;5073617;28;20951;-47
2022/08/26 01:33:12;;;;;;;14.10;11.87;;;22.50;99.90;;;;;;5074345;28;20429;-47
2022/08/26 01:35:39;;;;;;;23.07;13.20;;;22.30;99.90;;;;;;5074146;28;20470;-47
2022/08/26 01:38:07;;;;;;;15.33;11.70;;;22.40;99.90;;;;;;5074095;28;20946;-47
2022/08/26 01:40:37;;;;;;;17.93;12.30;;;22.50;99.90;;;;;;5073829;28;20435;-47
2022/08/26 01:43:07;;;;;;;16.67;13.30;;;22.30;99.90;;;;;;5074153;28;20431;-47
2022/08/26 01:45:36;;;;;;;17.50;12.60;;;22.50;99.90;;;;;;5073938;28;20434;-47
2022/08/26 01:48:10;;;;;;;18.97;12.83;;;22.40;99.90;;;;;;5074132;28;20788;-49
2022/08/26 01:50:38;;;;;;;18.00;13.20;;;22.50;99.90;;;;;;5073722;28;20438;-47
2022/08/26 01:53:10;;;;;;;22.07;14.40;;;22.40;99.90;;;;;;5055923;28;20443;-47
2022/08/26 01:55:40;;;;;;;19.40;12.53;;;22.00;99.90;;;;;;5073845;28;20491;-47
2022/08/26 01:58:16;;;;;;;17.00;12.90;;;22.10;99.90;;;;;;5073668;28;20449;-47
2022/08/26 02:00:43;;;;;;;19.03;13.30;;;22.40;99.90;;;;;;5073384;28;20424;-47
2022/08/26 02:03:20;;;;;;;18.60;14.03;;;22.20;99.90;;;;;;5073770;28;20801;-47
2022/08/26 02:05:52;;;;;;;24.43;11.83;;;22.10;99.90;;;;;;5073668;28;20509;-47
2022/08/26 02:08:22;;;;;;;17.27;12.30;;;22.10;99.90;;;;;;5073627;28;20462;-47
2022/08/26 02:10:49;;;;;;;19.47;13.33;;;22.30;99.90;;;;;;5073484;28;20497;-47
2022/08/26 02:13:16;;;;;;;18.63;13.40;;;22.10;99.90;;;;;;5073579;28;20433;-48
2022/08/26 02:15:44;;;;;;;20.63;14.63;;;22.30;99.90;;;;;;5055335;28;20474;-49
2022/08/26 02:18:12;;;;;;;24.67;14.20;;;22.10;99.90;;;;;;5073201;28;20838;-47
2022/08/26 02:20:39;;;;;;;21.40;13.37;;;22.30;99.90;;;;;;5073010;28;20798;-48
2022/08/26 02:23:06;;;;;;;18.07;14.50;;;22.90;99.90;;;;;;5073450;28;20435;-47
2022/08/26 02:25:43;;;;;;;17.47;13.60;;;22.30;99.90;;;;;;5073385;28;20435;-47
2022/08/26 02:28:11;;;;;;;19.03;14.03;;;22.10;99.90;;;;;;5073159;28;20454;-47
2022/08/26 02:30:40;;;;;;;20.93;14.60;;;22.20;99.90;;;;;;5073011;28;20440;-48
2022/08/26 02:33:06;;;;;;;21.43;14.17;;;22.20;99.90;;;;;;5073184;28;20433;-48
2022/08/26 02:35:35;;;;;;;23.40;13.93;;;22.00;99.90;;;;;;5072999;28;20490;-47
2022/08/26 02:38:02;;;;;;;24.10;14.33;;;21.90;99.90;;;;;;5072957;28;20454;-48
2022/08/26 02:40:31;;;;;;;20.67;13.67;;;22.30;99.90;;;;;;5072546;28;20443;-49
2022/08/26 02:42:59;;;;;;;19.20;13.77;;;22.10;99.90;;;;;;5073064;28;20460;-48
2022/08/26 02:45:27;;;;;;;24.70;14.53;;;22.30;99.90;;;;;;5072819;28;20768;-48
2022/08/26 02:47:55;;;;;;;15.40;13.20;;;22.10;99.90;;;;;;5072772;28;20863;-48
2022/08/26 02:50:22;;;;;;;27.93;13.40;;;22.20;99.90;;;;;;5072439;28;20443;-49
2022/08/26 02:52:48;;;;;;;18.90;13.30;;;22.10;99.90;;;;;;5072640;28;20436;-48
2022/08/26 02:55:16;;;;;;;16.20;13.70;;;22.00;99.90;;;;;;5072566;28;20483;-48
2022/08/26 02:57:43;;;;;;;22.53;14.33;;;22.10;99.90;;;;;;5072506;28;20453;-48
2022/08/26 03:00:14;;;;;;;17.13;13.23;;;22.10;99.90;;;;;;5054208;28;20446;-48
2022/08/26 03:02:40;;;;;;;16.27;12.90;;;22.10;99.90;;;;;;5072754;28;20473;-48
2022/08/26 03:05:08;;;;;;;23.57;14.70;;;22.40;99.90;;;;;;5072593;28;20427;-48
2022/08/26 03:07:34;;;;;;;16.93;14.00;;;22.10;99.90;;;;;;5072341;28;20861;-48
2022/08/26 03:10:01;;;;;;;18.30;11.70;;;22.10;99.90;;;;;;5072039;28;20433;-48
2022/08/26 03:12:28;;;;;;;17.07;12.90;;;22.10;99.90;;;;;;5072423;28;20849;-47
2022/08/26 03:14:55;;;;;;;20.43;12.47;;;22.30;99.90;;;;;;5072214;28;20476;-48
2022/08/26 03:17:23;;;;;;;20.90;12.00;;;22.10;99.90;;;;;;5072103;28;20465;-48
2022/08/26 03:19:49;;;;;;;20.40;12.27;;;22.10;99.90;;;;;;5071929;28;20518;-48
2022/08/26 03:22:16;;;;;;;19.97;13.30;;;22.30;99.90;;;;;;5071901;28;20430;-48
2022/08/26 03:24:42;;;;;;;20.20;14.33;;;22.10;99.90;;;;;;5072078;28;20442;-48
2022/08/26 03:27:09;;;;;;;17.60;13.20;;;22.00;99.90;;;;;;5072191;28;20453;-48
2022/08/26 03:32:23;;;;;;;19.13;12.30;;;22.10;99.90;;;;;;5037755;28;20445;-48
2022/08/26 03:34:50;;;;;;;19.10;13.40;;;22.20;99.90;;;;;;5071717;28;20444;-47
2022/08/26 03:37:16;;;;;;;18.87;12.37;;;22.10;99.90;;;;;;5071752;28;20443;-48
2022/08/26 03:39:43;;;;;;;20.10;12.73;;;22.10;99.90;;;;;;5071460;28;20431;-48
2022/08/26 03:42:10;;;;;;;16.13;12.30;;;22.20;99.90;;;;;;5071766;28;20432;-48
2022/08/26 03:44:37;;;;;;;22.30;13.70;;;22.10;99.90;;;;;;5071595;28;20540;-48
2022/08/26 03:47:05;;;;;;;21.57;12.93;;;22.40;99.90;;;;;;5071644;28;20428;-47
2022/08/26 03:49:34;;;;;;;21.33;13.33;;;22.10;99.90;;;;;;5071283;28;20435;-46
2022/08/26 03:52:01;;;;;;;15.07;12.40;;;22.10;99.90;;;;;;5071254;28;20487;-47
2022/08/26 03:54:28;;;;;;;21.90;13.80;;;22.10;99.90;;;;;;5072037;28;20435;-47
2022/08/26 03:56:54;;;;;;;19.33;13.50;;;22.10;99.90;;;;;;5073543;28;20531;-47
2022/08/26 03:59:21;;;;;;;26.30;13.67;;;22.10;99.90;;;;;;5071587;28;20998;-48
2022/08/26 04:01:48;;;;;;;20.27;14.03;;;22.00;99.90;;;;;;5071641;28;20468;-48
2022/08/26 04:04:15;;;;;;;15.37;13.80;;;22.00;99.90;;;;;;5071893;28;20437;-48
2022/08/26 04:06:43;;;;;;;21.50;17.40;;;22.00;99.90;;;;;;5072429;28;20437;-48
2022/08/26 04:09:13;;;;;;;24.83;15.70;;;22.00;99.90;;;;;;5071894;28;20455;-48
2022/08/26 04:11:41;;;;;;;18.97;16.30;;;22.00;99.90;;;;;;5072858;28;20522;-47
2022/08/26 04:14:13;;;;;;;27.13;18.60;;;21.90;99.90;;;;;;5072585;28;20459;-49
2022/08/26 04:16:40;;;;;;;22.43;16.33;;;21.90;99.90;;;;;;5073356;28;20466;-47
2022/08/26 04:19:06;;;;;;;18.87;16.80;;;21.90;99.90;;;;;;5071683;28;20569;-47
2022/08/26 04:21:34;;;;;;;18.67;16.17;;;21.90;99.90;;;;;;5071878;28;20945;-47
2022/08/26 04:24:02;;;;;;;28.30;17.60;;;21.90;99.90;;;;;;5071427;28;20430;-47
2022/08/26 04:26:35;;;;;;;17.30;15.47;;;21.90;99.90;;;;;;5053823;28;20442;-49
2022/08/26 04:29:03;;;;;;;17.67;15.27;;;21.90;99.90;;;;;;5071562;28;20470;-48
2022/08/26 04:31:30;;;;;;;23.33;15.23;;;21.90;99.90;;;;;;5071368;28;20440;-47
2022/08/26 04:33:56;;;;;;;26.20;16.60;;;21.90;99.90;;;;;;5071491;28;20441;-48
2022/08/26 04:36:23;;;;;;;20.60;15.30;;;22.00;99.90;;;;;;5071313;28;20481;-47
2022/08/26 04:38:50;;;;;;;19.20;14.50;;;22.00;99.90;;;;;;5070738;28;20457;-48
2022/08/26 04:41:19;;;;;;;18.40;14.77;;;22.00;99.90;;;;;;5071572;28;20773;-49
2022/08/26 04:43:47;;;;;;;28.00;15.13;;;22.00;99.90;;;;;;5071274;28;20436;-48
2022/08/26 04:46:20;;;;;;;18.10;15.27;;;22.00;99.90;;;;;;5071072;28;20436;-48
2022/08/26 04:48:47;;;;;;;27.10;14.93;;;21.70;99.90;;;;;;5070671;28;20458;-49
2022/08/26 04:51:14;;;;;;;19.93;15.13;;;22.30;99.90;;;;;;5071152;28;20945;-48
2022/08/26 04:53:41;;;;;;;24.53;15.30;;;22.00;99.90;;;;;;5070785;28;20444;-49
2022/08/26 04:56:08;;;;;;;18.30;14.27;;;21.80;99.90;;;;;;5070716;28;20485;-48
2022/08/26 04:58:36;;;;;;;23.53;14.97;;;22.10;99.90;;;;;;5070835;28;20462;-48
2022/08/26 05:01:03;;;;;;;27.50;13.60;;;22.00;99.90;;;;;;5071054;28;20831;-47
2022/08/26 05:03:30;;;;;;;21.67;13.93;;;22.10;99.90;;;;;;5070858;28;20585;-48
2022/08/26 05:05:58;;;;;;;21.20;14.17;;;22.10;99.90;;;;;;5074601;28;20460;-48
2022/08/26 05:08:25;;;;;;;23.23;14.73;;;22.20;99.90;;;;;;5074117;28;20446;-47
2022/08/26 05:10:54;;;;;;;19.80;13.93;;;22.30;99.90;;;;;;5074615;28;20552;-47
2022/08/26 05:13:25;;;;;;;19.40;14.17;;;22.90;99.90;;;;;;5074195;28;20875;-47
2022/08/26 05:15:53;;;;;;;21.30;13.80;;;22.40;99.90;;;;;;5074346;28;20957;-48
2022/08/26 05:18:21;;;;;;;20.93;13.43;;;22.50;99.90;;;;;;5073785;28;20486;-48
2022/08/26 05:20:51;;;;;;;20.60;14.00;;;22.50;99.90;;;;;;5073919;28;20451;-48
2022/08/26 05:23:20;;;;;;;16.07;13.40;;;22.70;99.90;;;;;;5074353;28;20522;-48
2022/08/26 05:25:48;;;;;;;20.83;13.00;;;22.50;99.90;;;;;;5074019;28;20431;-48
2022/08/26 05:28:17;;;;;;;20.90;13.40;;;22.60;99.90;;;;;;5074092;28;20561;-48
2022/08/26 05:30:44;;;;;;;26.33;14.13;;;22.70;99.90;;;;;;5074059;28;20442;-48
2022/08/26 05:33:12;;;;;;;20.97;13.30;;;22.70;99.90;;;;;;5073981;28;20466;-48
2022/08/26 05:35:40;;;;;;;18.80;13.07;;;22.80;99.90;;;;;;5073498;28;20471;-47
2022/08/26 05:38:09;;;;;;;24.70;14.00;;;22.70;99.90;;;;;;5073366;28;20509;-48
2022/08/26 05:40:37;;;;;;;19.93;13.83;;;23.00;99.90;;;;;;5073930;28;20437;-48
2022/08/26 05:43:09;;;;;;;22.00;12.57;;;23.10;99.90;;;;;;5073817;28;20448;-49
2022/08/26 05:45:37;;;;;;;23.00;13.63;;;23.10;99.90;;;;;;5074084;28;20912;-49
2022/08/26 05:48:06;;;;;;;18.00;13.10;;;23.30;99.90;;;;;;5073735;28;20472;-47
2022/08/26 05:50:37;;;;;;;21.63;13.47;;;23.40;99.90;;;;;;5054434;28;20810;-48
2022/08/26 05:53:05;;;;;;;25.70;13.47;;;23.50;99.90;;;;;;5073679;28;20657;-48
2022/08/26 05:55:32;;;;;;;17.30;12.20;;;23.60;99.90;;;;;;5073672;28;20435;-48
2022/08/26 05:57:59;;;;;;;21.30;12.13;;;23.70;99.90;;;;;;5072902;28;20509;-48
2022/08/26 06:00:26;;;;;;;21.17;12.50;;;23.70;99.90;;;;;;5072720;28;20937;-49
2022/08/26 06:02:53;;;;;;;21.23;13.87;;;23.80;99.90;;;;;;5073465;28;20447;-49
2022/08/26 06:05:19;;;;;;;17.17;11.73;;;23.90;99.90;;;;;;5073411;28;20431;-48
2022/08/26 06:10:32;;;;;;;19.33;13.10;;;23.90;99.90;;;;;;5073185;28;20436;-48
2022/08/26 06:12:59;;;;;;;17.80;12.50;;;23.90;99.90;;;;;;5073233;28;20798;-47
2022/08/26 06:15:25;;;;;;;22.67;12.80;;;23.90;99.90;;;;;;5072769;28;20517;-47
2022/08/26 06:17:52;;;;;;;19.73;13.20;;;23.90;99.90;;;;;;5073354;28;20480;-48
2022/08/26 06:20:19;;;;;;;26.17;14.00;;;24.00;99.90;;;;;;5072877;28;20440;-48
2022/08/26 06:25:37;;;;;;;20.87;12.60;;;24.10;99.90;;;;;;5073049;28;20436;-47
2022/08/26 06:28:04;;;;;;;24.47;12.10;;;24.20;99.90;;;;;;5054730;28;20518;-47
2022/08/26 06:30:31;;;;;;;30.47;14.47;;;24.30;99.90;;;;;;5072259;28;20435;-48
2022/08/26 06:32:58;;;;;;;20.03;12.77;;;24.30;99.90;;;;;;5072436;28;20527;-49
2022/08/26 06:35:24;;;;;;;24.63;12.07;;;24.40;99.90;;;;;;5072807;28;20949;-48
2022/08/26 06:37:51;;;;;;;25.47;12.47;;;24.50;99.90;;;;;;5072550;28;20481;-48
2022/08/26 06:40:19;;;;;;;24.20;13.43;;;24.50;99.90;;;;;;5072332;28;20456;-48
2022/08/26 06:42:47;;;;;;;24.70;13.73;;;24.60;99.90;;;;;;5072186;28;20433;-48
2022/08/26 06:45:14;;;;;;;24.30;12.30;;;24.70;99.90;;;;;;5072809;28;20441;-48
2022/08/26 06:47:40;;;;;;;25.60;11.70;;;24.70;99.90;;;;;;5072743;28;20449;-48
2022/08/26 06:50:08;;;;;;;23.67;13.23;;;24.70;99.90;;;;;;5072218;28;20433;-48
2022/08/26 06:52:34;;;;;;;22.13;12.77;;;24.80;99.90;;;;;;5072395;28;20433;-48
2022/08/26 06:55:01;;;;;;;22.77;11.90;;;24.80;99.90;;;;;;5072411;28;20798;-47
2022/08/26 06:57:31;;;;;;;24.47;11.90;;;24.90;99.90;;;;;;5054739;28;20478;-48
2022/08/26 06:59:59;;;;;;;21.30;12.60;;;24.90;99.90;;;;;;5072698;28;21007;-48
2022/08/26 07:02:25;;;;;;;20.10;12.07;;;24.90;99.90;;;;;;5072695;28;20446;-47
2022/08/26 07:04:52;;;;;;;28.50;12.47;;;25.00;99.90;;;;;;5072340;28;20426;-48
2022/08/26 07:07:18;;;;;;;26.43;13.10;;;25.00;99.90;;;;;;5072023;28;20429;-48
2022/08/26 07:09:45;;;;;;;25.33;13.67;;;25.10;99.90;;;;;;5053486;28;20861;-48
2022/08/26 07:12:12;;;;;;;28.20;12.23;;;25.20;99.90;;;;;;5072159;28;20928;-48
2022/08/26 07:14:38;;;;;;;22.90;12.47;;;25.20;99.90;;;;;;5071975;28;20479;-49
2022/08/26 07:17:07;;;;;;;22.17;11.50;;;25.20;99.90;;;;;;5072001;28;21004;-48
2022/08/26 07:19:34;;;;;;;25.00;13.00;;;25.20;99.90;;;;;;5053519;28;20454;-48
2022/08/26 07:22:03;;;;;;;23.07;12.50;;;25.20;99.90;;;;;;5071949;28;20434;-49
2022/08/26 07:24:30;;;;;;;23.30;12.30;;;25.30;99.90;;;;;;5070810;28;20445;-48
2022/08/26 07:26:59;;;;;;;28.90;13.20;;;25.30;99.90;;;;;;5070937;28;20510;-48
2022/08/26 07:29:26;;;;;;;23.30;12.30;;;25.40;99.90;;;;;;5071413;28;20459;-48
2022/08/26 07:31:53;;;;;;;29.20;14.07;;;25.40;99.90;;;;;;5071866;28;20430;-47
2022/08/26 07:34:21;;;;;;;20.80;12.70;;;25.40;99.90;;;;;;5071001;28;20466;-49
2022/08/26 07:36:49;;;;;;;49.33;12.83;;;25.50;99.90;;;;;;5071408;28;20481;-48
2022/08/26 07:39:15;;;;;;;23.97;11.83;;;25.50;99.90;;;;;;5053058;28;20507;-48
2022/08/26 07:41:45;;;;;;;18.53;11.53;;;25.60;99.90;;;;;;5071343;28;20437;-48
2022/08/26 07:44:12;;;;;;;27.07;13.20;;;25.70;99.90;;;;;;5071390;28;20434;-48
2022/08/26 07:46:39;;;;;;;22.80;12.97;;;25.70;99.90;;;;;;5071398;28;20806;-49
2022/08/26 07:49:06;;;;;;;23.87;12.60;;;25.70;99.90;;;;;;5070908;28;20452;-48
2022/08/26 07:51:35;;;;;;;18.67;11.33;;;25.80;99.90;;;;;;5071528;28;20442;-47
2022/08/26 07:54:03;;;;;;;24.97;11.83;;;25.80;99.90;;;;;;5071459;28;20438;-49
2022/08/26 07:56:30;;;;;;;18.57;11.17;;;25.80;99.90;;;;;;5071501;28;20470;-49
2022/08/26 07:58:57;;;;;;;26.87;11.40;;;25.90;99.90;;;;;;5071117;28;20445;-48
2022/08/26 08:01:25;;;;;;;18.20;11.00;;;25.90;99.90;;;;;;5070876;28;20437;-48
2022/08/26 08:03:53;;;;;;;22.00;10.80;;;26.00;99.90;;;;;;5070988;28;20506;-48
2022/08/26 08:06:21;;;;;;;16.80;10.37;;;26.00;99.90;;;;;;5071327;28;20429;-48
2022/08/26 08:08:49;;;;;;;20.47;10.77;;;26.10;99.90;;;;;;5071072;28;20453;-49
2022/08/26 08:11:16;;;;;;;25.13;10.93;;;26.20;99.90;;;;;;5071058;28;20465;-48
2022/08/26 08:13:43;;;;;;;24.97;11.83;;;26.20;99.90;;;;;;5071168;28;20587;-47
2022/08/26 08:16:10;;;;;;;26.67;10.80;;;26.30;99.90;;;;;;5071497;28;20454;-52
2022/08/26 08:18:36;;;;;;;21.50;10.03;;;26.30;99.90;;;;;;5052395;28;20535;-47
2022/08/26 08:21:04;;;;;;;22.30;9.50;;;26.30;99.90;;;;;;5071195;28;20426;-48
2022/08/26 08:23:31;;;;;;;24.20;9.20;;;26.40;99.90;;;;;;5071692;28;20427;-48
2022/08/26 08:26:02;;;;;;;20.43;8.60;;;26.50;99.90;;;;;;5071889;28;20433;-49
2022/08/26 08:28:29;;;;;;;21.50;8.50;;;26.50;99.90;;;;;;5071451;28;20768;-48
2022/08/26 08:30:56;;;;;;;22.70;9.63;;;26.60;99.90;;;;;;5070787;28;20438;-48
2022/08/26 08:33:23;;;;;;;23.57;8.97;;;26.70;99.90;;;;;;5070905;28;20437;-47
2022/08/26 08:35:49;;;;;;;19.90;7.40;;;26.70;99.90;;;;;;5071109;28;20430;-47
2022/08/26 08:38:16;;;;;;;20.17;8.93;;;26.80;99.90;;;;;;5072295;28;20485;-47
2022/08/26 08:40:45;;;;;;;22.63;8.60;;;26.80;99.90;;;;;;5074787;28;20454;-48
2022/08/26 08:43:29;;;;;;;20.23;8.67;;;26.90;99.90;;;;;;5074994;28;20449;-47
2022/08/26 08:45:59;;;;;;;22.30;8.80;;;26.90;99.90;;;;;;5074895;28;20449;-47
2022/08/26 08:48:29;;;;;;;25.50;9.60;;;26.90;99.90;;;;;;5074298;28;20449;-50
2022/08/26 08:51:02;;;;;;;23.10;9.20;;;26.90;99.90;;;;;;5075134;28;20436;-48
2022/08/26 08:53:31;;;;;;;24.37;9.40;;;26.80;99.90;;;;;;5074703;28;20797;-48
2022/08/26 08:56:04;;;;;;;23.30;9.77;;;26.90;99.90;;;;;;5074932;28;20427;-48
2022/08/26 08:58:50;;;;;;;27.70;10.20;;;26.90;99.90;;;;;;5074362;28;20953;-48
2022/08/26 09:01:33;;;;;;;19.03;8.30;;;27.00;99.90;;;;;;5074814;28;20434;-48
2022/08/26 09:04:17;;;;;;;18.60;8.60;;;26.90;99.90;;;;;;5075025;28;20543;-48
2022/08/26 09:06:45;;;;;;;27.70;9.80;;;27.00;99.90;;;;;;5074685;28;20456;-49
2022/08/26 09:09:20;;;;;;;22.37;9.03;;;27.10;99.90;;;;;;5074212;28;20511;-48
2022/08/26 09:11:47;;;;;;;22.40;10.37;;;27.20;99.90;;;;;;5075085;28;20429;-48
2022/08/26 09:14:15;;;;;;;23.57;8.60;;;27.20;99.90;;;;;;5074314;28;20430;-49
2022/08/26 09:16:50;;;;;;;21.07;9.07;;;27.30;99.90;;;;;;5056482;28;20473;-48
2022/08/26 09:19:22;;;;;;;19.40;9.50;;;27.40;99.90;;;;;;5073542;28;20496;-48
2022/08/26 09:21:56;;;;;;;22.27;7.43;;;27.40;99.90;;;;;;5074398;28;20433;-48
2022/08/26 09:24:22;;;;;;;26.00;7.83;;;27.50;99.90;;;;;;5074428;28;20791;-48
2022/08/26 09:26:51;;;;;;;18.40;7.57;;;27.60;99.90;;;;;;5072854;28;20472;-47
2022/08/26 09:29:25;;;;;;;26.30;9.83;;;27.70;99.90;;;;;;5073909;28;20463;-48
2022/08/26 09:32:12;;;;;;;16.33;6.93;;;27.80;99.90;;;;;;5073243;28;21014;-48
2022/08/26 09:34:53;;;;;;;25.40;8.03;;;27.90;99.90;;;;;;5073549;28;20444;-49
2022/08/26 09:37:36;;;;;;;28.97;8.60;;;28.00;99.90;;;;;;5065789;28;20859;-48
2022/08/26 09:40:27;;;;;;;29.73;7.67;;;28.10;99.90;;;;;;5054028;28;20430;-49
2022/08/26 09:43:18;;;;;;;24.97;7.60;;;28.30;99.90;;;;;;5055106;28;20465;-50
2022/08/26 09:45:48;;;;;;;22.70;7.50;;;28.40;99.60;;;;;;5055746;28;20979;-48
2022/08/26 09:48:25;;;;;;;29.70;8.57;;;28.40;99.80;;;;;;5055854;28;20470;-49
2022/08/26 09:50:55;;;;;;;22.17;7.73;;;28.50;99.40;;;;;;5074086;28;20902;-48
2022/08/26 09:53:24;;;;;;;18.60;7.33;;;28.50;99.50;;;;;;5056030;28;20443;-47
2022/08/26 09:56:11;;;;;;;14.73;7.00;;;28.60;99.40;;;;;;5053742;28;20469;-48
2022/08/26 09:58:39;;;;;;;21.77;7.63;;;28.60;99.20;;;;;;5053368;28;20481;-48
2022/08/26 10:01:13;;;;;;;34.40;9.10;;;28.70;98.80;;;;;;5064270;28;20457;-48
2022/08/26 10:03:40;;;;;;;28.73;7.50;;;28.70;98.30;;;;;;5073907;28;20547;-48
2022/08/26 10:06:21;;;;;;;24.40;7.90;;;28.70;98.20;;;;;;5073731;28;20445;-47
2022/08/26 10:08:50;;;;;;;23.37;7.97;;;28.80;97.70;;;;;;5072994;28;20544;-48
2022/08/26 10:11:24;;;;;;;22.47;8.17;;;28.80;97.70;;;;;;5072833;28;20891;-48
2022/08/26 10:13:56;;;;;;;22.83;8.47;;;28.90;97.60;;;;;;5073757;28;20438;-47
2022/08/26 10:16:29;;;;;;;22.40;9.90;;;28.90;97.60;;;;;;5073862;28;20433;-50
2022/08/26 10:19:00;;;;;;;16.83;7.70;;;28.90;97.60;;;;;;5055254;28;20482;-47
2022/08/26 10:21:33;;;;;;;18.13;7.77;;;28.90;97.70;;;;;;5073730;28;20488;-48
2022/08/26 10:27:52;;;;;;;22.10;8.57;;;28.90;97.30;;;;;;5073385;28;20444;-48
2022/08/26 10:30:22;;;;;;;29.77;8.07;;;28.90;97.70;;;;;;5073667;28;20451;-48
2022/08/26 10:32:54;;;;;;;28.03;9.20;;;28.90;97.30;;;;;;5074083;28;20438;-48
2022/08/26 10:35:22;;;;;;;21.53;8.63;;;28.90;97.10;;;;;;5074338;28;20437;-47
2022/08/26 10:37:53;;;;;;;23.70;8.20;;;29.00;97.10;;;;;;5073846;28;20485;-47
2022/08/26 10:40:24;;;;;;;28.80;8.87;;;29.00;97.10;;;;;;5073427;28;20425;-48
2022/08/26 10:42:55;;;;;;;22.97;8.37;;;29.10;97.00;;;;;;5073376;28;20441;-48
2022/08/26 10:45:26;;;;;;;31.07;9.93;;;29.20;96.80;;;;;;5073968;28;20436;-47
2022/08/26 10:48:00;;;;;;;23.53;9.67;;;29.30;96.70;;;;;;5063353;28;20483;-49
2022/08/26 10:50:32;;;;;;;21.53;8.17;;;29.40;96.40;;;;;;5052507;28;20434;-48
2022/08/26 10:53:03;;;;;;;26.27;8.37;;;29.40;96.10;;;;;;5052499;28;20445;-48
2022/08/26 10:55:36;;;;;;;16.77;8.17;;;29.50;95.80;;;;;;5052287;28;20427;-47
2022/08/26 10:58:17;;;;;;;25.13;8.83;;;29.60;95.50;;;;;;5052236;28;20486;-48
2022/08/26 11:03:42;;;;;;;20.77;8.83;;;29.90;95.20;;;;;;5072026;28;20505;-49
2022/08/26 11:06:26;;;;;;;24.30;8.70;;;30.00;94.90;;;;;;5071512;28;20433;-48
2022/08/26 11:08:55;;;;;;;20.93;8.33;;;30.00;94.40;;;;;;5071732;28;20461;-48
2022/08/26 11:11:45;;;;;;;18.73;8.07;;;30.00;94.60;;;;;;5071790;28;20487;-48
2022/08/26 11:14:31;;;;;;;26.30;9.20;;;30.00;94.30;;;;;;5071838;28;20529;-48
2022/08/26 11:17:00;;;;;;;16.43;8.13;;;30.00;94.30;;;;;;5071679;28;20434;-49
2022/08/26 11:20:01;;;;;;;26.40;10.33;;;29.90;94.60;;;;;;5071413;28;20522;-49
2022/08/26 11:22:30;;;;;;;17.43;8.03;;;29.90;94.50;;;;;;5072359;28;20433;-48
2022/08/26 11:25:13;;;;;;;20.60;9.50;;;29.80;94.70;;;;;;5071769;28;20425;-50
2022/08/26 11:28:04;;;;;;;23.60;8.27;;;29.80;94.80;;;;;;5071672;28;20457;-49
2022/08/26 11:30:46;;;;;;;24.70;10.30;;;29.80;94.80;;;;;;5071325;28;20525;-48
2022/08/26 11:33:45;;;;;;;25.00;8.97;;;29.60;94.90;;;;;;5071862;28;20506;-48
2022/08/26 11:36:56;;;;;;;18.50;9.10;;;29.60;95.10;;;;;;5071697;28;20796;-48
2022/08/26 11:39:28;;;;;;;18.33;8.47;;;29.60;94.80;;;;;;5070495;28;20481;-49
2022/08/26 11:41:58;;;;;;;20.13;9.47;;;29.60;94.80;;;;;;5071306;28;20437;-48
2022/08/26 11:44:27;;;;;;;15.50;9.13;;;29.70;94.50;;;;;;5071153;28;20437;-48
2022/08/26 11:46:58;;;;;;;16.03;9.00;;;29.80;94.30;;;;;;5071481;28;20471;-49
2022/08/26 11:49:25;;;;;;;20.00;9.53;;;29.80;94.20;;;;;;5070559;28;20454;-48
2022/08/26 11:52:08;;;;;;;24.93;9.80;;;29.90;94.20;;;;;;5053075;28;20884;-48
2022/08/26 11:54:34;;;;;;;18.10;9.03;;;29.90;94.10;;;;;;5071103;28;20452;-49
2022/08/26 11:57:02;;;;;;;18.60;8.40;;;29.90;94.20;;;;;;5071584;28;20441;-48
2022/08/26 11:59:37;;;;;;;21.63;9.33;;;30.00;94.20;;;;;;5070549;28;20491;-49
2022/08/26 12:02:12;;;;;;;18.30;9.57;;;30.00;94.40;;;;;;5071093;28;20512;-49
2022/08/26 12:04:41;;;;;;;8.40;3.30;;;29.80;93.70;;;;;;5070664;28;20506;-48
2022/08/26 12:07:10;;;;;;;7.50;3.50;;;29.50;92.00;;;;;;5071932;28;20445;-48
2022/08/26 12:09:50;;;;;;;16.37;4.20;;;29.20;91.10;;;;;;5070939;28;20453;-49
2022/08/26 12:12:21;;;;;;;16.10;4.60;;;28.90;91.50;;;;;;5070943;28;20529;-49
2022/08/26 12:14:48;;;;;;;9.10;4.73;;;28.60;92.70;;;;;;5071150;28;20434;-49
2022/08/26 12:17:17;;;;;;;10.30;4.90;;;28.40;94.30;;;;;;5070766;28;20434;-47
2022/08/26 12:19:44;;;;;;;10.17;4.67;;;28.10;95.40;;;;;;5069706;28;20765;-49
2022/08/26 12:22:18;;;;;;;12.20;4.77;;;27.90;96.20;;;;;;5052996;28;20449;-49
2022/08/26 12:24:48;;;;;;;14.97;5.00;;;27.70;96.70;;;;;;5071162;28;20496;-49
2022/08/26 12:27:18;;;;;;;14.80;5.07;;;27.50;97.30;;;;;;5071263;28;20436;-50
2022/08/26 12:29:44;;;;;;;8.20;5.40;;;27.40;97.90;;;;;;5070675;28;20797;-49
2022/08/26 12:32:16;;;;;;;8.10;4.73;;;27.20;98.00;;;;;;5070724;28;20568;-49
2022/08/26 12:34:44;;;;;;;8.80;5.37;;;27.00;98.10;;;;;;5070844;28;20451;-49
2022/08/26 12:37:12;;;;;;;9.57;4.50;;;26.80;98.10;;;;;;5070889;28;20426;-49
2022/08/26 12:39:43;;;;;;;13.43;5.73;;;26.70;98.10;;;;;;5070184;28;20473;-49
2022/08/26 12:42:23;;;;;;;10.57;5.70;;;26.60;98.80;;;;;;5070403;28;20905;-49
2022/08/26 12:44:58;;;;;;;10.63;6.07;;;26.50;99.30;;;;;;5070260;28;20461;-49
2022/08/26 12:47:28;;;;;;;15.17;6.10;;;26.30;99.70;;;;;;5070723;28;20977;-49
2022/08/26 12:50:05;;;;;;;12.90;6.33;;;26.20;99.90;;;;;;5070434;28;20449;-49
2022/08/26 12:52:35;;;;;;;9.37;5.47;;;26.20;99.90;;;;;;5071014;28;20500;-48
2022/08/26 12:55:17;;;;;;;11.57;5.10;;;26.10;99.90;;;;;;5070895;28;20436;-47
2022/08/26 12:57:43;;;;;;;9.40;5.43;;;26.10;99.90;;;;;;5070281;28;20997;-48
2022/08/26 13:00:30;;;;;;;11.77;5.90;;;25.90;99.90;;;;;;5070430;28;20734;-48